Malcolm Mc Kinnon Airport Brunswick US
ICAO: KSSI
IATA: SSI
Category: Medium
Scheduled Services: No

Elevation: 19 ft
TransAlt. 18000 ft.

Airport Communications:
ASOS:118.525
JACKSONVILLE CNTR:126.75
CTAF/UNICOM:123.05

KSSI Zoom In..

Runways:

(A) RW 04 length 5584 ft width 100 ft
---- / hdg 41

(B) RW 16 length 3313 ft width 75 ft
---- / hdg 159

(C) RW 22 length 5584 ft width 100 ft
---- / hdg 221

(D) RW 34 length 3313 ft width 75 ft
---- / hdg 339

Location; KSSI
Day. 20 / Time. 09.53 Zulu
* Altimeter: 30.15
* Temperature: 16° c. 60.8°f.
* Wind from: 040° Speed 13 kn with Gusts up to 22 kn.
Dewpoint: 08° c.
Visibility: 10 Statute Miles.
Clouds: Clear (automated report).

KSSI 200953Z AUTO 04013G22KT 10SM CLR 16/08 A3015 RMK AO2 SLP210 T01610083


Wind From 040°
Speed 13 kn.

  YouTube Music Video
 
jpsmedia.com for Web Design  worldairports.se 2018   terms of use